Time;durP1;ratioP1;P1;durP2;ratioP2;P2;SDS_P1;SDS_P2;PMS_P1;PMS_P2;Temp;Humidity;BMP_temperature;BMP_pressure;BME280_temperature;BME280_humidity;BME280_pressure;Samples;Min_cycle;Max_cycle;Signal;HPM_P1;HPM_P2
2024/01/13 00:02:05;;;;;;;;;;;;;;;18.00;33.76;101500.47;5038443;28;1052;-57
2024/01/13 00:04:30;;;;;;;;;;;;;;;17.08;35.15;101499.44;5038084;28;1048;-57
2024/01/13 00:06:56;;;;;;;;;;;;;;;16.45;36.47;101506.34;5037885;28;1020;-57
2024/01/13 00:09:21;;;;;;;;;;;;;;;16.50;36.39;101499.00;5037995;28;898;-56
2024/01/13 00:11:47;;;;;;;;;;;;;;;17.92;33.75;101494.38;5037352;28;1057;-57
2024/01/13 00:14:12;;;;;;;;;;;;;;;17.39;34.67;101487.88;5038039;28;1972;-57
2024/01/13 00:16:38;;;;;;;;;;;;;;;16.54;36.01;101483.69;5037490;28;1083;-57
2024/01/13 00:19:04;;;;;;;;;;;;;;;16.95;35.48;101477.84;5036908;28;1100;-57
2024/01/13 00:21:29;;;;;;;;;;;;;;;18.11;33.38;101478.25;5037389;28;857;-57
2024/01/13 00:23:56;;;;;;;;;;;;;;;16.98;35.38;101485.56;5038050;28;993;-57
2024/01/13 00:26:22;;;;;;;;;;;;;;;16.32;36.49;101480.94;5037920;28;1147;-57
2024/01/13 00:28:47;;;;;;;;;;;;;;;16.51;36.28;101470.47;5037626;28;1146;-57
2024/01/13 00:31:13;;;;;;;;;;;;;;;17.89;33.75;101472.03;5037480;28;1087;-57
2024/01/13 00:33:43;;;;;;;;;;;;;;;17.26;34.80;101473.50;5037550;28;1130;-57
2024/01/13 00:36:09;;;;;;;;;;;;;;;16.45;36.32;101473.41;5036938;28;1985;-57
2024/01/13 00:38:35;;;;;;;;;;;;;;;16.97;35.48;101472.94;5037438;28;1215;-57
2024/01/13 00:41:00;;;;;;;;;;;;;;;18.17;33.24;101459.00;5037289;28;1071;-56
2024/01/13 00:43:26;;;;;;;;;;;;;;;16.98;35.18;101469.09;5037023;28;1104;-58
2024/01/13 00:45:52;;;;;;;;;;;;;;;16.36;36.42;101468.38;5037862;28;1072;-56
2024/01/13 00:48:17;;;;;;;;;;;;;;;16.62;36.00;101465.94;5037167;28;1107;-57
2024/01/13 00:50:43;;;;;;;;;;;;;;;17.99;33.74;101469.38;5037361;28;1035;-57
2024/01/13 00:53:08;;;;;;;;;;;;;;;17.15;34.80;101463.47;5037610;28;1040;-57
2024/01/13 00:55:34;;;;;;;;;;;;;;;16.51;36.32;101458.66;5036854;28;1980;-57
2024/01/13 00:57:59;;;;;;;;;;;;;;;16.43;36.32;101466.25;5037202;28;1351;-57
2024/01/13 01:00:25;;;;;;;;;;;;;;;17.87;33.91;101463.22;5037134;28;1084;-56
2024/01/13 01:02:51;;;;;;;;;;;;;;;17.27;34.72;101455.91;5037296;28;1067;-57
2024/01/13 01:05:16;;;;;;;;;;;;;;;16.54;36.32;101461.72;5036986;28;1123;-57
2024/01/13 01:07:42;;;;;;;;;;;;;;;16.05;37.11;101462.47;5036899;28;1052;-57
2024/01/13 01:10:08;;;;;;;;;;;;;;;17.36;34.74;101464.50;5035190;28;1557;-57
2024/01/13 01:12:33;;;;;;;;;;;;;;;17.98;33.67;101467.72;5036400;28;1517;-56
2024/01/13 01:14:59;;;;;;;;;;;;;;;16.81;35.73;101468.34;5036620;28;1909;-58
2024/01/13 01:17:24;;;;;;;;;;;;;;;16.22;36.80;101467.09;5037244;28;989;-57
2024/01/13 01:19:50;;;;;;;;;;;;;;;16.79;35.72;101459.53;5036619;28;1152;-58
2024/01/13 01:22:16;;;;;;;;;;;;;;;18.02;33.58;101449.59;5037068;28;1111;-57
2024/01/13 01:24:41;;;;;;;;;;;;;;;17.02;35.05;101451.00;5036366;28;1012;-57
2024/01/13 01:27:07;;;;;;;;;;;;;;;16.42;36.22;101450.91;5036624;28;1080;-57
2024/01/13 01:29:33;;;;;;;;;;;;;;;16.99;35.35;101456.19;5036510;28;1119;-57
2024/01/13 01:31:58;;;;;;;;;;;;;;;18.03;33.57;101445.72;5036532;28;1147;-58
2024/01/13 01:34:24;;;;;;;;;;;;;;;16.86;35.59;101444.50;5036625;28;1914;-57
2024/01/13 01:36:49;;;;;;;;;;;;;;;16.24;36.75;101448.44;5036778;28;1052;-57
2024/01/13 01:39:15;;;;;;;;;;;;;;;17.00;35.37;101439.44;5036151;28;1036;-57
2024/01/13 01:41:40;;;;;;;;;;;;;;;18.15;33.42;101441.97;5036467;28;1059;-57
2024/01/13 01:44:06;;;;;;;;;;;;;;;17.04;34.94;101429.59;5036451;28;1170;-57
2024/01/13 01:46:31;;;;;;;;;;;;;;;16.38;36.23;101427.78;5018780;28;1096;-57
2024/01/13 01:48:58;;;;;;;;;;;;;;;16.19;36.65;101430.00;5017954;28;1025;-56
2024/01/13 01:51:24;;;;;;;;;;;;;;;17.73;34.08;101408.66;5018974;28;1131;-58
2024/01/13 01:53:50;;;;;;;;;;;;;;;17.38;34.32;101401.03;5036094;28;1112;-57
2024/01/13 01:56:22;;;;;;;;;;;;;;;16.53;35.92;101412.56;5035575;28;1980;-56
2024/01/13 01:58:49;;;;;;;;;;;;;;;17.10;35.28;101401.06;5035854;28;1131;-56
2024/01/13 02:01:15;;;;;;;;;;;;;;;18.09;33.32;101397.88;5019091;28;1061;-56
2024/01/13 02:03:40;;;;;;;;;;;;;;;16.97;35.08;101397.94;5018397;28;1099;-57
2024/01/13 02:06:06;;;;;;;;;;;;;;;16.33;36.25;101396.72;5018566;28;1060;-58
2024/01/13 02:08:32;;;;;;;;;;;;;;;16.01;37.12;101379.03;5036167;28;1064;-57
2024/01/13 02:10:58;;;;;;;;;;;;;;;17.51;34.25;101375.81;5037344;28;1245;-56
2024/01/13 02:13:23;;;;;;;;;;;;;;;17.74;33.78;101382.81;5040113;28;1048;-57
2024/01/13 02:15:49;;;;;;;;;;;;;;;16.66;35.73;101384.72;5039666;28;1985;-56
2024/01/13 02:18:14;;;;;;;;;;;;;;;16.12;36.91;101381.88;5040214;28;895;-56
2024/01/13 02:20:40;;;;;;;;;;;;;;;17.47;34.70;101382.91;5039564;28;1060;-57
2024/01/13 02:23:05;;;;;;;;;;;;;;;17.48;34.30;101386.53;5040362;28;997;-56
2024/01/13 02:25:31;;;;;;;;;;;;;;;16.54;35.92;101384.84;5036639;28;1520;-57
2024/01/13 02:27:57;;;;;;;;;;;;;;;16.29;36.48;101390.06;5039960;28;1179;-56
2024/01/13 02:30:22;;;;;;;;;;;;;;;17.79;34.03;101382.00;5039997;28;1148;-57
2024/01/13 02:32:48;;;;;;;;;;;;;;;17.56;33.93;101375.03;5039016;28;1060;-57
2024/01/13 02:35:13;;;;;;;;;;;;;;;16.56;35.83;101390.09;5040050;28;1906;-57
2024/01/13 02:37:39;;;;;;;;;;;;;;;16.14;36.93;101382.47;5039532;28;1083;-57
2024/01/13 02:40:07;;;;;;;;;;;;;;;17.62;34.29;101369.28;5039451;28;937;-58
2024/01/13 02:42:32;;;;;;;;;;;;;;;17.25;34.74;101372.03;5039638;28;1092;-57
2024/01/13 02:44:58;;;;;;;;;;;;;;;16.53;36.29;101374.13;5040094;28;1088;-57
2024/01/13 02:47:24;;;;;;;;;;;;;;;16.01;36.99;101373.53;5039195;28;1133;-57
2024/01/13 02:49:50;;;;;;;;;;;;;;;17.15;34.97;101375.53;5022106;28;1048;-57
2024/01/13 02:52:15;;;;;;;;;;;;;;;18.04;33.30;101364.00;5039660;28;1004;-57
2024/01/13 02:54:41;;;;;;;;;;;;;;;16.84;35.33;101357.94;5039372;28;1903;-57
2024/01/13 02:57:07;;;;;;;;;;;;;;;16.22;36.37;101369.13;5039637;28;1131;-57
2024/01/13 02:59:32;;;;;;;;;;;;;;;17.04;35.17;101369.16;5039411;28;1064;-58
2024/01/13 03:01:58;;;;;;;;;;;;;;;18.02;33.23;101371.69;5038703;28;1071;-57
2024/01/13 03:04:24;;;;;;;;;;;;;;;16.89;35.57;101363.53;5039274;28;1049;-56
2024/01/13 03:06:49;;;;;;;;;;;;;;;16.31;36.64;101361.25;5039469;28;1020;-56
2024/01/13 03:09:15;;;;;;;;;;;;;;;17.08;35.37;101364.78;5039058;28;1223;-56
2024/01/13 03:11:40;;;;;;;;;;;;;;;18.16;33.18;101361.00;5038862;28;1051;-57
2024/01/13 03:14:06;;;;;;;;;;;;;;;16.96;35.04;101360.53;5039335;28;1122;-57
2024/01/13 03:16:32;;;;;;;;;;;;;;;16.33;36.44;101359.09;5038573;28;1918;-57
2024/01/13 03:18:57;;;;;;;;;;;;;;;16.69;35.93;101348.50;5033361;28;1416;-57
2024/01/13 03:21:24;;;;;;;;;;;;;;;17.97;33.74;101347.75;5036303;28;1088;-58
2024/01/13 03:23:49;;;;;;;;;;;;;;;17.05;35.02;101365.28;5037232;28;1156;-56
2024/01/13 03:26:15;;;;;;;;;;;;;;;16.41;36.28;101357.81;5039260;28;1208;-58
2024/01/13 03:28:41;;;;;;;;;;;;;;;17.13;35.22;101347.50;5038209;28;1088;-56
2024/01/13 03:31:06;;;;;;;;;;;;;;;17.98;33.40;101343.91;5037755;28;1341;-58
2024/01/13 03:33:32;;;;;;;;;;;;;;;16.79;35.46;101341.41;5038524;28;977;-57
2024/01/13 03:35:57;;;;;;;;;;;;;;;16.19;36.68;101344.13;5038713;28;1902;-56
2024/01/13 03:38:25;;;;;;;;;;;;;;;16.49;36.21;101346.34;5038590;28;1071;-56
2024/01/13 03:40:50;;;;;;;;;;;;;;;17.84;33.96;101349.03;5038712;28;1092;-55
2024/01/13 03:43:16;;;;;;;;;;;;;;;17.44;34.25;101342.22;5038285;28;1049;-56
2024/01/13 03:45:41;;;;;;;;;;;;;;;16.54;36.20;101349.16;5038352;28;1239;-58
2024/01/13 03:48:07;;;;;;;;;;;;;;;16.55;36.13;101345.34;5039067;28;1080;-57
2024/01/13 03:50:33;;;;;;;;;;;;;;;18.01;33.50;101343.34;5038707;28;1080;-56
2024/01/13 03:52:58;;;;;;;;;;;;;;;17.34;34.46;101340.22;5038067;28;1076;-57
2024/01/13 03:55:24;;;;;;;;;;;;;;;16.47;36.22;101353.22;5038377;28;1914;-58
2024/01/13 03:57:49;;;;;;;;;;;;;;;16.11;36.81;101347.31;5038219;28;1072;-55
2024/01/13 04:00:15;;;;;;;;;;;;;;;17.49;34.34;101341.41;5037463;28;1120;-56
2024/01/13 04:02:41;;;;;;;;;;;;;;;17.87;33.71;101339.44;5037523;28;1159;-57
2024/01/13 04:05:06;;;;;;;;;;;;;;;16.77;35.76;101342.53;5037962;28;1060;-58
2024/01/13 04:07:32;;;;;;;;;;;;;;;16.18;36.74;101342.47;5037138;28;1282;-58
2024/01/13 04:09:58;;;;;;;;;;;;;;;16.96;35.47;101342.16;5038036;28;1079;-57
2024/01/13 04:12:23;;;;;;;;;;;;;;;18.09;33.26;101334.59;5034599;28;1337;-56
2024/01/13 04:14:49;;;;;;;;;;;;;;;17.13;34.86;101327.47;5029825;28;1902;-57
2024/01/13 04:17:14;;;;;;;;;;;;;;;16.42;36.48;101330.13;5037675;28;1056;-57
2024/01/13 04:19:40;;;;;;;;;;;;;;;16.18;36.98;101326.00;5038442;28;1191;-57
2024/01/13 04:22:05;;;;;;;;;;;;;;;17.75;33.96;101317.63;5037429;28;1047;-56
2024/01/13 04:24:31;;;;;;;;;;;;;;;17.52;34.27;101324.41;5037104;28;1047;-57
2024/01/13 04:26:56;;;;;;;;;;;;;;;16.63;36.09;101332.22;5038110;28;1143;-52
2024/01/13 04:29:22;;;;;;;;;;;;;;;16.21;36.95;101333.72;5020228;28;1318;-57
2024/01/13 04:31:48;;;;;;;;;;;;;;;17.42;34.66;101328.75;5037795;28;1134;-57
2024/01/13 04:34:13;;;;;;;;;;;;;;;17.78;34.04;101326.19;5036407;28;1020;-61
2024/01/13 04:36:39;;;;;;;;;;;;;;;16.71;35.76;101327.06;5037861;28;1921;-60
2024/01/13 04:39:04;;;;;;;;;;;;;;;16.15;36.89;101332.84;5037466;28;1052;-58
2024/01/13 04:41:30;;;;;;;;;;;;;;;16.91;35.69;101336.63;5038150;28;1040;-56
2024/01/13 04:43:56;;;;;;;;;;;;;;;18.02;33.73;101327.66;5036942;28;1079;-56
2024/01/13 04:46:21;;;;;;;;;;;;;;;16.85;35.48;101332.97;5036694;28;1183;-55
2024/01/13 04:48:47;;;;;;;;;;;;;;;16.18;37.15;101326.81;5037528;28;1211;-56
2024/01/13 04:51:12;;;;;;;;;;;;;;;17.02;35.46;101321.06;5037402;28;1084;-56
2024/01/13 04:53:38;;;;;;;;;;;;;;;18.05;33.51;101307.88;5037008;28;1159;-55
2024/01/13 04:56:04;;;;;;;;;;;;;;;16.86;35.71;101300.84;5025138;28;1980;-55
2024/01/13 04:58:29;;;;;;;;;;;;;;;16.18;36.80;101304.06;5037213;28;1056;-54
2024/01/13 05:00:55;;;;;;;;;;;;;;;16.37;36.86;101297.13;5037085;28;1211;-56
2024/01/13 05:03:20;;;;;;;;;;;;;;;17.79;34.16;101297.59;5037258;28;1108;-55
2024/01/13 05:05:46;;;;;;;;;;;;;;;17.02;34.91;101299.88;5037053;28;1144;-56
2024/01/13 05:08:12;;;;;;;;;;;;;;;16.25;36.66;101313.72;5018788;28;1029;-54
2024/01/13 05:10:37;;;;;;;;;;;;;;;16.40;36.68;101309.50;5036718;28;1674;-55
2024/01/13 05:13:03;;;;;;;;;;;;;;;17.84;33.92;101301.44;5037109;28;1147;-54
2024/01/13 05:15:28;;;;;;;;;;;;;;;17.02;35.11;101296.31;5036172;28;1975;-56
2024/01/13 05:17:54;;;;;;;;;;;;;;;16.24;36.86;101303.00;5036866;28;1155;-54
2024/01/13 05:20:19;;;;;;;;;;;;;;;16.95;35.61;101293.78;5036994;28;1160;-55
2024/01/13 05:22:45;;;;;;;;;;;;;;;18.11;33.10;101293.84;5036212;28;1051;-54
2024/01/13 05:25:11;;;;;;;;;;;;;;;16.82;35.38;101288.72;5036407;28;1048;-50
2024/01/13 05:27:36;;;;;;;;;;;;;;;16.12;36.73;101296.84;5036422;28;1127;-51
2024/01/13 05:30:02;;;;;;;;;;;;;;;17.82;33.68;101292.63;5036299;28;1061;-54
2024/01/13 05:32:28;;;;;;;;;;;;;;;17.09;35.08;101283.19;5036729;28;1103;-52
2024/01/13 05:34:54;;;;;;;;;;;;;;;16.32;36.40;101277.03;5036410;28;1909;-55
2024/01/13 05:37:19;;;;;;;;;;;;;;;15.92;37.18;101276.31;5036183;28;1087;-53
2024/01/13 05:39:45;;;;;;;;;;;;;;;17.58;34.17;101279.31;5019103;28;1135;-53
2024/01/13 05:42:10;;;;;;;;;;;;;;;17.37;34.27;101290.22;5036613;28;1056;-55
2024/01/13 05:44:36;;;;;;;;;;;;;;;16.40;36.43;101291.09;5036061;28;1012;-52
2024/01/13 05:47:02;;;;;;;;;;;;;;;17.71;34.18;101298.09;5035563;28;1049;-54
2024/01/13 05:49:27;;;;;;;;;;;;;;;17.14;34.98;101282.38;5036536;28;1021;-54
2024/01/13 05:51:53;;;;;;;;;;;;;;;16.38;36.46;101279.56;5035997;28;1115;-54
2024/01/13 05:54:18;;;;;;;;;;;;;;;16.02;37.36;101281.94;5036605;28;1238;-54
2024/01/13 05:56:44;;;;;;;;;;;;;;;17.61;34.18;101279.63;5036219;28;1971;-52
2024/01/13 05:59:10;;;;;;;;;;;;;;;17.22;34.65;101288.22;5035765;28;958;-51
2024/01/13 06:01:35;;;;;;;;;;;;;;;16.51;36.37;101277.47;5036359;28;1107;-52
2024/01/13 06:04:01;;;;;;;;;;;;;;;18.21;33.18;101283.97;5036238;28;1075;-49
2024/01/13 06:06:26;;;;;;;;;;;;;;;17.03;35.08;101290.56;5034089;28;1081;-54
2024/01/13 06:08:52;;;;;;;;;;;;;;;16.65;35.76;101284.19;5035626;28;1023;-52
2024/01/13 06:11:17;;;;;;;;;;;;;;;18.28;32.94;101295.53;5035683;28;1123;-52
2024/01/13 06:13:43;;;;;;;;;;;;;;;16.94;35.34;101286.63;5036046;28;1549;-50
2024/01/13 06:16:09;;;;;;;;;;;;;;;17.51;34.42;101292.50;5035959;28;1906;-54
2024/01/13 06:18:34;;;;;;;;;;;;;;;18.61;32.50;101285.13;5035406;28;1048;-55
2024/01/13 06:21:00;;;;;;;;;;;;;;;17.10;34.99;101280.16;5035669;28;1005;-54
2024/01/13 06:23:26;;;;;;;;;;;;;;;17.26;35.06;101291.25;5035812;28;1529;-50
2024/01/13 06:25:51;;;;;;;;;;;;;;;18.69;32.23;101289.25;5036002;28;1164;-52
2024/01/13 06:28:17;;;;;;;;;;;;;;;17.30;34.65;101295.13;5035229;28;1110;-52
2024/01/13 06:30:42;;;;;;;;;;;;;;;16.72;35.99;101295.78;5035849;28;1108;-55
2024/01/13 06:33:08;;;;;;;;;;;;;;;18.15;33.57;101293.31;5035879;28;1131;-54
2024/01/13 06:35:34;;;;;;;;;;;;;;;17.61;34.05;101298.03;5035017;28;1910;-45
2024/01/13 06:37:59;;;;;;;;;;;;;;;16.80;35.66;101301.88;5035751;28;1148;-48
2024/01/13 06:40:25;;;;;;;;;;;;;;;17.07;35.35;101291.69;5035642;28;1447;-47
2024/01/13 06:42:50;;;;;;;;;;;;;;;18.45;32.80;101295.28;5035504;28;1008;-45
2024/01/13 06:45:16;;;;;;;;;;;;;;;17.03;35.35;101281.50;5035910;28;1064;-48
2024/01/13 06:47:42;;;;;;;;;;;;;;;17.22;35.08;101287.38;5035577;28;913;-48
2024/01/13 06:50:08;;;;;;;;;;;;;;;18.43;32.67;101290.06;5035452;28;1088;-47
2024/01/13 06:52:33;;;;;;;;;;;;;;;17.02;35.52;101290.81;5035993;28;1119;-45
2024/01/13 06:55:00;;;;;;;;;;;;;;;16.64;36.00;101296.25;5035386;28;1927;-47
2024/01/13 06:57:25;;;;;;;;;;;;;;;17.73;34.29;101284.91;5037744;28;1120;-48
2024/01/13 06:59:51;;;;;;;;;;;;;;;17.79;33.92;101294.00;5038781;28;898;-46
2024/01/13 07:02:16;;;;;;;;;;;;;;;16.86;35.82;101296.19;5025861;28;972;-44
2024/01/13 07:04:43;;;;;;;;;;;;;;;18.31;33.09;101292.22;5039487;28;1032;-51
2024/01/13 07:07:09;;;;;;;;;;;;;;;17.47;34.41;101283.13;5039176;28;1029;-53
2024/01/13 07:09:35;;;;;;;;;;;;;;;16.86;35.60;101295.38;5038806;28;1184;-54
2024/01/13 07:12:00;;;;;;;;;;;;;;;16.48;36.44;101287.06;5039075;28;998;-52
2024/01/13 07:14:26;;;;;;;;;;;;;;;18.12;33.45;101291.94;5038545;28;1895;-54
2024/01/13 07:16:52;;;;;;;;;;;;;;;17.23;35.01;101278.03;5026421;28;1061;-53
2024/01/13 07:19:18;;;;;;;;;;;;;;;17.38;34.79;101269.06;5038658;28;1009;-53
2024/01/13 07:21:45;;;;;;;;;;;;;;;18.34;33.04;101264.19;5038579;28;1099;-53
2024/01/13 07:24:11;;;;;;;;;;;;;;;17.02;35.15;101266.91;5038606;28;861;-61
2024/01/13 07:26:40;;;;;;;;;;;;;;;17.18;35.08;101272.50;5039087;28;1092;-55
2024/01/13 07:29:06;;;;;;;;;;;;;;;18.04;33.41;101265.75;5038536;28;1028;-56
2024/01/13 07:31:31;;;;;;;;;;;;;;;17.35;34.57;101267.69;5038634;28;1052;-49
2024/01/13 07:33:57;;;;;;;;;;;;;;;18.89;31.99;101260.91;5038351;28;1068;-52
2024/01/13 07:36:22;;;;;;;;;;;;;;;17.89;33.58;101251.94;5038551;28;1987;-58
2024/01/13 07:38:48;;;;;;;;;;;;;;;18.49;32.57;101254.28;5038583;28;1327;-57
2024/01/13 07:41:13;;;;;;;;;;;;;;;19.23;31.28;101257.53;5038084;28;1136;-55
2024/01/13 07:43:39;;;;;;;;;;;;;;;17.58;34.05;101251.84;5038571;28;1084;-58
2024/01/13 07:46:05;;;;;;;;;;;;;;;18.62;32.52;101238.03;5038399;28;1048;-59
2024/01/13 07:48:30;;;;;;;;;;;;;;;18.22;32.96;101245.16;5038107;28;962;-58
2024/01/13 07:50:56;;;;;;;;;;;;;;;17.34;34.59;101252.28;5037595;28;1123;-57
2024/01/13 07:53:21;;;;;;;;;;;;;;;16.97;35.52;101246.81;5038144;28;1258;-58
2024/01/13 07:55:47;;;;;;;;;;;;;;;16.69;35.92;101235.06;5037447;28;1914;-59
2024/01/13 07:58:13;;;;;;;;;;;;;;;17.55;34.17;101238.63;5037561;28;1377;-59
2024/01/13 08:00:38;;;;;;;;;;;;;;;17.46;34.40;101238.31;5037288;28;1215;-57
2024/01/13 08:03:07;;;;;;;;;;;;;;;16.77;35.67;101242.81;5037878;28;1309;-56
2024/01/13 08:05:32;;;;;;;;;;;;;;;16.33;36.19;101249.31;5037374;28;1123;-58
2024/01/13 08:07:58;;;;;;;;;;;;;;;16.11;36.67;101245.81;5036714;28;1373;-55
2024/01/13 08:10:23;;;;;;;;;;;;;;;15.99;36.62;101257.78;5037183;28;1115;-57
2024/01/13 08:12:49;;;;;;;;;;;;;;;16.42;35.92;101258.75;5037059;28;1108;-58
2024/01/13 08:15:15;;;;;;;;;;;;;;;17.96;33.11;101263.53;5037157;28;1977;-57
2024/01/13 08:17:41;;;;;;;;;;;;;;;16.63;35.48;101252.59;5037749;28;1314;-56
2024/01/13 08:20:07;;;;;;;;;;;;;;;16.54;35.62;101249.50;5037764;28;1188;-56
2024/01/13 08:22:32;;;;;;;;;;;;;;;18.19;32.67;101247.63;5037436;28;1081;-57
2024/01/13 08:24:58;;;;;;;;;;;;;;;17.12;34.26;101248.84;5037405;28;849;-58
2024/01/13 08:27:24;;;;;;;;;;;;;;;16.50;35.70;101253.88;5037440;28;1012;-58
2024/01/13 08:29:49;;;;;;;;;;;;;;;16.11;36.11;101245.81;5037864;28;1115;-57
2024/01/13 08:32:15;;;;;;;;;;;;;;;17.81;33.21;101249.72;5037192;28;1028;-57
2024/01/13 08:34:40;;;;;;;;;;;;;;;17.17;34.23;101243.41;5037377;28;1898;-57
2024/01/13 08:37:06;;;;;;;;;;;;;;;16.51;35.19;101250.88;5037441;28;926;-59
2024/01/13 08:39:32;;;;;;;;;;;;;;;16.14;35.98;101242.56;5037555;28;1123;-58
2024/01/13 08:41:57;;;;;;;;;;;;;;;17.66;33.33;101245.81;5036617;28;1096;-58
2024/01/13 08:44:23;;;;;;;;;;;;;;;17.22;33.66;101230.50;5037544;28;1020;-57
2024/01/13 08:46:48;;;;;;;;;;;;;;;16.41;35.32;101226.91;5036931;28;1041;-58
2024/01/13 08:49:14;;;;;;;;;;;;;;;16.05;36.19;101232.03;5027438;28;1143;-59
2024/01/13 08:51:40;;;;;;;;;;;;;;;17.01;34.15;101220.47;5035347;28;1072;-58
2024/01/13 08:54:06;;;;;;;;;;;;;;;18.28;31.79;101226.72;5037241;28;1052;-60
2024/01/13 08:56:34;;;;;;;;;;;;;;;17.15;33.66;101231.81;5036915;28;1906;-58
2024/01/13 08:59:00;;;;;;;;;;;;;;;16.53;35.03;101221.22;5036330;28;1130;-60
2024/01/13 09:01:25;;;;;;;;;;;;;;;17.13;33.81;101220.28;5036619;28;1441;-58
2024/01/13 09:03:51;;;;;;;;;;;;;;;18.42;31.59;101216.00;5036421;28;1108;-60
2024/01/13 09:06:16;;;;;;;;;;;;;;;17.02;33.86;101211.97;5036969;28;1191;-57
2024/01/13 09:08:42;;;;;;;;;;;;;;;16.43;34.92;101200.00;5037181;28;1440;-59
2024/01/13 09:11:09;;;;;;;;;;;;;;;16.55;34.77;101188.84;5036331;28;1144;-59
2024/01/13 09:13:34;;;;;;;;;;;;;;;17.75;32.35;101183.69;5035719;28;1194;-59
2024/01/13 09:16:00;;;;;;;;;;;;;;;16.71;34.51;101184.28;5030997;28;1969;-58
2024/01/13 09:18:25;;;;;;;;;;;;;;;16.21;35.29;101171.81;5036132;28;1298;-58
2024/01/13 09:20:51;;;;;;;;;;;;;;;17.64;32.88;101179.25;5036741;28;1172;-57
2024/01/13 09:23:17;;;;;;;;;;;;;;;17.68;32.59;101174.84;5036520;28;1148;-57
2024/01/13 09:25:42;;;;;;;;;;;;;;;16.54;34.65;101178.13;5036941;28;1174;-60
2024/01/13 09:28:09;;;;;;;;;;;;;;;17.04;33.96;101168.59;5036924;28;1175;-60
2024/01/13 09:30:35;;;;;;;;;;;;;;;17.74;32.30;101173.78;5036762;28;1095;-60
2024/01/13 09:33:01;;;;;;;;;;;;;;;16.68;34.38;101156.53;5036142;28;1084;-57
2024/01/13 09:35:30;;;;;;;;;;;;;;;17.49;32.88;101168.19;5035881;28;1914;-59
2024/01/13 09:37:59;;;;;;;;;;;;;;;17.15;33.50;101155.69;5023193;28;1044;-58
2024/01/13 09:40:25;;;;;;;;;;;;;;;16.54;34.43;101147.94;5033781;28;1294;-57
2024/01/13 09:42:51;;;;;;;;;;;;;;;16.20;35.40;101139.97;5017925;28;1144;-58
2024/01/13 09:45:17;;;;;;;;;;;;;;;15.95;35.43;101149.66;5035359;28;1248;-60
2024/01/13 09:47:46;;;;;;;;;;;;;;;17.64;32.65;101139.94;5035851;28;1223;-61
2024/01/13 09:50:11;;;;;;;;;;;;;;;17.30;32.93;101141.19;5035845;28;1032;-58
2024/01/13 09:52:38;;;;;;;;;;;;;;;16.51;34.61;101141.06;5036256;28;1044;-57
2024/01/13 09:55:03;;;;;;;;;;;;;;;16.60;34.48;101149.63;5035287;28;1977;-59
2024/01/13 09:57:29;;;;;;;;;;;;;;;18.12;32.01;101127.63;5034931;28;1043;-57
2024/01/13 09:59:54;;;;;;;;;;;;;;;16.83;34.09;101131.91;5034279;28;969;-58
2024/01/13 10:02:20;;;;;;;;;;;;;;;16.39;34.86;101116.53;5036383;28;1125;-57
2024/01/13 10:04:46;;;;;;;;;;;;;;;18.11;31.96;101109.44;5032212;28;1080;-58
2024/01/13 10:07:11;;;;;;;;;;;;;;;16.88;33.66;101112.72;5035924;28;1219;-58
2024/01/13 10:09:40;;;;;;;;;;;;;;;16.28;34.77;101114.81;5036467;28;1141;-56
2024/01/13 10:12:06;;;;;;;;;;;;;;;17.92;32.23;101119.34;5035379;28;1185;-57
2024/01/13 10:14:32;;;;;;;;;;;;;;;17.04;33.41;101127.38;5035793;28;1218;-57
2024/01/13 10:17:02;;;;;;;;;;;;;;;16.46;34.63;101115.50;5035722;28;1144;-56
2024/01/13 10:19:28;;;;;;;;;;;;;;;17.74;32.44;101117.94;5030348;28;1341;-55
2024/01/13 10:21:53;;;;;;;;;;;;;;;17.87;32.11;101111.09;5035937;28;1285;-56
2024/01/13 10:24:19;;;;;;;;;;;;;;;16.77;33.93;101109.09;5035809;28;1270;-58
2024/01/13 10:26:44;;;;;;;;;;;;;;;16.31;34.75;101114.28;5035486;28;1337;-59
2024/01/13 10:29:10;;;;;;;;;;;;;;;17.26;33.20;101123.59;5036032;28;1024;-59
2024/01/13 10:31:36;;;;;;;;;;;;;;;17.96;31.81;101128.72;5037213;28;1368;-60
2024/01/13 10:34:02;;;;;;;;;;;;;;;16.76;33.90;101123.09;5039947;28;1237;-62
2024/01/13 10:36:27;;;;;;;;;;;;;;;16.34;34.71;101119.25;5039080;28;1976;-60
2024/01/13 10:38:53;;;;;;;;;;;;;;;17.67;32.53;101137.47;5039905;28;1318;-58
2024/01/13 10:41:23;;;;;;;;;;;;;;;17.66;32.32;101133.06;5021825;28;1140;-61
2024/01/13 10:43:52;;;;;;;;;;;;;;;16.65;34.35;101115.88;5039847;28;1123;-59
2024/01/13 10:46:18;;;;;;;;;;;;;;;16.35;34.96;101109.91;5021520;28;1243;-60
2024/01/13 10:48:45;;;;;;;;;;;;;;;18.10;31.65;101110.56;5015599;28;1196;-59
2024/01/13 10:51:15;;;;;;;;;;;;;;;17.47;32.81;101107.16;5038492;28;1156;-60
2024/01/13 10:53:42;;;;;;;;;;;;;;;16.65;34.33;101108.47;5038276;28;1250;-60
2024/01/13 10:56:08;;;;;;;;;;;;;;;16.38;34.52;101103.91;5019823;28;1962;-60
2024/01/13 10:58:33;;;;;;;;;;;;;;;17.47;32.68;101110.72;5036944;28;1314;-60
2024/01/13 11:00:59;;;;;;;;;;;;;;;17.57;32.29;101107.19;5021592;28;1260;-58
2024/01/13 11:03:24;;;;;;;;;;;;;;;16.56;34.11;101097.16;5039012;28;1227;-58
2024/01/13 11:05:50;;;;;;;;;;;;;;;17.76;32.32;101105.56;5021582;28;1279;-59
2024/01/13 11:08:16;;;;;;;;;;;;;;;17.75;32.29;101103.94;5038469;28;1251;-59
2024/01/13 11:10:42;;;;;;;;;;;;;;;17.42;32.84;101100.56;5021204;28;1256;-60
2024/01/13 11:13:08;;;;;;;;;;;;;;;18.75;30.64;101082.34;5021382;28;1183;-60
2024/01/13 11:15:38;;;;;;;;;;;;;;;17.27;32.84;101075.78;5039178;28;2214;-59
2024/01/13 11:18:04;;;;;;;;;;;;;;;16.70;33.90;101078.28;5038361;28;1145;-60
2024/01/13 11:20:50;;;;;;;;;;;;;;;16.40;34.44;101074.28;5038773;28;1114;-59
2024/01/13 11:23:15;;;;;;;;;;;;;;;16.18;35.09;101070.84;5039040;28;1933;-60
2024/01/13 11:25:41;;;;;;;;;;;;;;;17.72;32.58;101056.88;5020574;28;1128;-60
2024/01/13 11:28:08;;;;;;;;;;;;;;;17.20;33.20;101054.06;5021139;28;1096;-60
2024/01/13 11:30:40;;;;;;;;;;;;;;;16.45;34.31;101054.25;5021268;28;1056;-60
2024/01/13 11:33:06;;;;;;;;;;;;;;;17.97;31.98;101050.59;5025312;28;1144;-60
2024/01/13 11:35:32;;;;;;;;;;;;;;;17.03;33.54;101054.28;5038972;28;1902;-56
2024/01/13 11:38:00;;;;;;;;;;;;;;;16.36;34.61;101053.94;5037867;28;1041;-57
2024/01/13 11:40:26;;;;;;;;;;;;;;;16.55;34.64;101061.72;5038372;28;1107;-56
2024/01/13 11:42:59;;;;;;;;;;;;;;;18.07;31.59;101049.75;5038478;28;1107;-52
2024/01/13 11:45:35;;;;;;;;;;;;;;;16.66;33.96;101055.22;5038612;28;1090;-54
2024/01/13 11:48:21;;;;;;;;;;;;;;;18.16;31.58;101042.59;5025781;28;1180;-56
2024/01/13 11:50:50;;;;;;;;;;;;;;;17.31;32.82;101043.91;5027408;28;1691;-59
2024/01/13 11:53:39;;;;;;;;;;;;;;;16.75;34.11;101048.09;5038002;28;1056;-57
2024/01/13 11:56:05;;;;;;;;;;;;;;;17.82;32.09;101054.13;5025672;28;1910;-58
2024/01/13 11:58:31;;;;;;;;;;;;;;;17.07;33.26;101041.66;5037975;28;1417;-59
2024/01/13 12:00:57;;;;;;;;;;;;;;;16.54;34.56;101038.13;5038158;28;1083;-58
2024/01/13 12:03:23;;;;;;;;;;;;;;;16.21;35.05;101027.22;5037677;28;1073;-57
2024/01/13 12:05:48;;;;;;;;;;;;;;;15.92;35.26;101026.75;5037856;28;1080;-55
2024/01/13 12:08:14;;;;;;;;;;;;;;;17.63;32.46;101026.38;5037639;28;1144;-57
2024/01/13 12:10:41;;;;;;;;;;;;;;;17.22;32.79;101029.03;5037447;28;1221;-56
2024/01/13 12:13:14;;;;;;;;;;;;;;;16.46;34.41;101030.41;5037567;28;1076;-57
2024/01/13 12:15:42;;;;;;;;;;;;;;;17.98;31.77;101027.47;5025324;28;1965;-59
2024/01/13 12:18:08;;;;;;;;;;;;;;;17.20;32.86;101032.06;5037600;28;1148;-57
2024/01/13 12:20:33;;;;;;;;;;;;;;;16.46;34.38;101030.41;5037453;28;1168;-58
2024/01/13 12:22:59;;;;;;;;;;;;;;;16.17;35.03;101023.38;5037769;28;1047;-57
2024/01/13 12:25:25;;;;;;;;;;;;;;;17.65;32.43;101026.91;5037448;28;1033;-57
2024/01/13 12:27:50;;;;;;;;;;;;;;;17.83;31.95;101032.97;5037643;28;1045;-57
2024/01/13 12:30:19;;;;;;;;;;;;;;;16.71;33.77;101025.03;5037336;28;1286;-57
2024/01/13 12:32:45;;;;;;;;;;;;;;;17.40;32.81;101031.28;5037000;28;1058;-61
2024/01/13 12:35:12;;;;;;;;;;;;;;;17.70;31.85;101026.91;5037783;28;1901;-59
2024/01/13 12:37:37;;;;;;;;;;;;;;;16.81;33.63;101029.72;5037057;28;1053;-60
2024/01/13 12:40:05;;;;;;;;;;;;;;;16.53;34.12;101025.50;5037392;28;1051;-58
2024/01/13 12:42:30;;;;;;;;;;;;;;;18.17;31.51;101016.69;5037212;28;1152;-58